Time;durP1;ratioP1;P1;durP2;ratioP2;P2;SDS_P1;SDS_P2;PMS_P1;PMS_P2;Temp;Humidity;BMP_temperature;BMP_pressure;BME280_temperature;BME280_humidity;BME280_pressure;Samples;Min_cycle;Max_cycle;Signal;HPM_P1;HPM_P2
2023/04/07 00:00:33;;;;;;;7.32;3.38;;;;;;;;;;4979896;28;20499;-63
2023/04/07 00:03:01;;;;;;;8.70;3.67;;;;;;;;;;4980527;28;20047;-63
2023/04/07 00:05:27;;;;;;;6.97;3.63;;;;;;;;;;4980412;28;20054;-63
2023/04/07 00:07:54;;;;;;;10.07;3.60;;;;;;;;;;4990851;28;20069;-62
2023/04/07 00:10:21;;;;;;;9.30;3.47;;;;;;;;;;4981120;28;20035;-63
2023/04/07 00:12:47;;;;;;;5.45;3.00;;;;;;;;;;4979627;28;20811;-63
2023/04/07 00:15:14;;;;;;;9.52;3.47;;;;;;;;;;4980169;28;20038;-62
2023/04/07 00:17:41;;;;;;;7.32;3.60;;;;;;;;;;4979077;28;20039;-61
2023/04/07 00:20:08;;;;;;;8.95;3.40;;;;;;;;;;4979230;28;20096;-61
2023/04/07 00:22:34;;;;;;;9.63;3.75;;;;;;;;;;4980381;28;20041;-63
2023/04/07 00:25:01;;;;;;;16.20;4.57;;;;;;;;;;4978644;28;20642;-63
2023/04/07 00:27:27;;;;;;;8.50;3.45;;;;;;;;;;4978680;28;20042;-64
2023/04/07 00:29:54;;;;;;;9.27;3.80;;;;;;;;;;4979349;28;20035;-64
2023/04/07 00:32:22;;;;;;;6.78;3.63;;;;;;;;;;4978901;28;20038;-61
2023/04/07 00:34:48;;;;;;;18.25;4.40;;;;;;;;;;4979476;28;20061;-63
2023/04/07 00:37:15;;;;;;;7.18;3.70;;;;;;;;;;4979123;28;20101;-60
2023/04/07 00:39:41;;;;;;;8.77;4.18;;;;;;;;;;4978271;28;20038;-64
2023/04/07 00:42:08;;;;;;;7.55;3.85;;;;;;;;;;4978202;28;20035;-62
2023/04/07 00:44:35;;;;;;;11.30;3.92;;;;;;;;;;4977361;28;20093;-60
2023/04/07 00:47:02;;;;;;;10.55;3.78;;;;;;;;;;4978324;28;20116;-57
2023/04/07 00:49:28;;;;;;;9.10;4.00;;;;;;;;;;4978871;28;20056;-59
2023/04/07 00:51:55;;;;;;;6.40;3.55;;;;;;;;;;4989884;28;20038;-62
2023/04/07 00:54:23;;;;;;;8.57;3.95;;;;;;;;;;4990755;28;20089;-60
2023/04/07 00:57:09;;;;;;;10.77;3.90;;;;;;;;;;4989227;28;20185;-59
2023/04/07 00:59:36;;;;;;;8.02;4.15;;;;;;;;;;4989224;28;20047;-61
2023/04/07 01:02:11;;;;;;;9.23;4.03;;;;;;;;;;4989671;28;20037;-62
2023/04/07 01:04:40;;;;;;;12.18;5.38;;;;;;;;;;4972387;28;20042;-63
2023/04/07 01:07:11;;;;;;;10.65;3.75;;;;;;;;;;4988639;28;20117;-58
2023/04/07 01:09:43;;;;;;;12.40;4.13;;;;;;;;;;4988578;28;20042;-63
2023/04/07 01:12:21;;;;;;;6.75;3.88;;;;;;;;;;4989323;28;20119;-61
2023/04/07 01:14:51;;;;;;;7.32;3.30;;;;;;;;;;4990506;28;20787;-60
2023/04/07 01:17:19;;;;;;;7.03;3.80;;;;;;;;;;4989389;28;20216;-60
2023/04/07 01:19:48;;;;;;;7.32;3.45;;;;;;;;;;4989425;28;20133;-58
2023/04/07 01:22:20;;;;;;;15.35;3.88;;;;;;;;;;4989703;28;20565;-59
2023/04/07 01:25:05;;;;;;;6.68;3.67;;;;;;;;;;4989708;28;20050;-59
2023/04/07 01:27:38;;;;;;;7.72;3.80;;;;;;;;;;4990796;28;20575;-61
2023/04/07 01:30:07;;;;;;;8.38;3.50;;;;;;;;;;4989754;28;20038;-59
2023/04/07 01:32:36;;;;;;;8.32;3.30;;;;;;;;;;4989521;28;20045;-62
2023/04/07 01:35:05;;;;;;;9.43;3.20;;;;;;;;;;4983320;28;20038;-64
2023/04/07 01:37:32;;;;;;;12.02;3.80;;;;;;;;;;4978209;28;20155;-62
2023/04/07 01:39:58;;;;;;;9.98;3.95;;;;;;;;;;4978636;28;20042;-61
2023/04/07 01:42:26;;;;;;;8.95;3.90;;;;;;;;;;4993044;28;20050;-63
2023/04/07 01:44:53;;;;;;;8.73;3.58;;;;;;;;;;4978677;28;20121;-60
2023/04/07 01:47:19;;;;;;;13.27;3.40;;;;;;;;;;4973574;28;20049;-64
2023/04/07 01:49:46;;;;;;;10.43;3.50;;;;;;;;;;4979037;28;20089;-64
2023/04/07 01:52:14;;;;;;;9.38;3.83;;;;;;;;;;4979150;28;20072;-63
2023/04/07 01:54:41;;;;;;;12.70;3.63;;;;;;;;;;4971169;28;20046;-65
2023/04/07 01:57:07;;;;;;;10.75;3.22;;;;;;;;;;4993309;28;20140;-64
2023/04/07 01:59:34;;;;;;;8.10;3.45;;;;;;;;;;4977595;28;20058;-62
2023/04/07 02:02:01;;;;;;;8.98;3.72;;;;;;;;;;4978784;28;20042;-64
2023/04/07 02:04:27;;;;;;;8.50;3.17;;;;;;;;;;4989573;28;20157;-63
2023/04/07 02:07:01;;;;;;;12.02;3.63;;;;;;;;;;4976651;28;20050;-65
2023/04/07 02:09:30;;;;;;;8.90;3.72;;;;;;;;;;4977975;28;20507;-65
2023/04/07 02:11:58;;;;;;;11.65;3.65;;;;;;;;;;4977703;28;20053;-63
2023/04/07 02:14:25;;;;;;;10.52;3.50;;;;;;;;;;4976558;28;20038;-62
2023/04/07 02:16:53;;;;;;;18.45;4.75;;;;;;;;;;4973349;28;20208;-65
2023/04/07 02:19:20;;;;;;;8.93;3.65;;;;;;;;;;4975809;28;20406;-62
2023/04/07 02:21:48;;;;;;;8.80;4.32;;;;;;;;;;4977225;28;20142;-60
2023/04/07 02:24:19;;;;;;;8.68;4.20;;;;;;;;;;4976510;28;20103;-62
2023/04/07 02:26:46;;;;;;;9.75;3.75;;;;;;;;;;4974876;28;20063;-62
2023/04/07 02:29:13;;;;;;;15.55;3.88;;;;;;;;;;4977111;28;20042;-65
2023/04/07 02:31:40;;;;;;;9.80;5.03;;;;;;;;;;4976097;28;20046;-62
2023/04/07 02:34:06;;;;;;;12.43;5.00;;;;;;;;;;4977052;28;20038;-62
2023/04/07 02:36:33;;;;;;;11.80;4.65;;;;;;;;;;4974931;28;20030;-65
2023/04/07 02:39:00;;;;;;;7.70;4.00;;;;;;;;;;4976602;28;20044;-62
2023/04/07 02:41:27;;;;;;;7.97;3.83;;;;;;;;;;4975486;28;20439;-63
2023/04/07 02:43:54;;;;;;;7.57;4.07;;;;;;;;;;4975145;28;20057;-62
2023/04/07 02:46:20;;;;;;;9.43;4.03;;;;;;;;;;4973744;28;20145;-64
2023/04/07 02:48:47;;;;;;;8.80;4.65;;;;;;;;;;4975885;28;20428;-63
2023/04/07 02:51:14;;;;;;;7.13;4.10;;;;;;;;;;4975507;28;20055;-62
2023/04/07 02:53:40;;;;;;;13.80;4.55;;;;;;;;;;4966849;28;20088;-63
2023/04/07 02:56:07;;;;;;;9.05;3.75;;;;;;;;;;4975890;28;20805;-63
2023/04/07 02:58:54;;;;;;;7.30;3.78;;;;;;;;;;4982161;28;20046;-64
2023/04/07 03:01:20;;;;;;;7.63;3.83;;;;;;;;;;4983834;28;20049;-64
2023/04/07 03:03:47;;;;;;;8.55;4.30;;;;;;;;;;4983138;28;21664;-64
2023/04/07 03:06:14;;;;;;;8.48;4.07;;;;;;;;;;4983051;28;20053;-67
2023/04/07 03:08:41;;;;;;;9.30;4.03;;;;;;;;;;4983757;28;21012;-62
2023/04/07 03:11:07;;;;;;;8.35;3.83;;;;;;;;;;4984465;28;20034;-63
2023/04/07 03:13:34;;;;;;;24.17;4.75;;;;;;;;;;4983643;28;20045;-60
2023/04/07 03:16:01;;;;;;;13.63;3.88;;;;;;;;;;4983494;28;20046;-63
2023/04/07 03:18:27;;;;;;;9.38;3.90;;;;;;;;;;4969509;28;20042;-61
2023/04/07 03:20:55;;;;;;;7.10;3.60;;;;;;;;;;4984152;28;20099;-61
2023/04/07 03:23:22;;;;;;;11.10;3.80;;;;;;;;;;4985054;28;20071;-62
2023/04/07 03:25:49;;;;;;;8.93;4.05;;;;;;;;;;4983195;28;20046;-64
2023/04/07 03:28:16;;;;;;;7.85;3.50;;;;;;;;;;4983825;28;20134;-64
2023/04/07 03:30:42;;;;;;;9.23;3.33;;;;;;;;;;4977072;28;20488;-63
2023/04/07 03:33:09;;;;;;;9.73;3.35;;;;;;;;;;4960366;28;20456;-65
2023/04/07 03:35:36;;;;;;;6.05;2.65;;;;;;;;;;4975335;28;20050;-65
2023/04/07 03:38:03;;;;;;;12.07;3.20;;;;;;;;;;4976351;28;20034;-61
2023/04/07 03:40:29;;;;;;;7.18;3.40;;;;;;;;;;4976290;28;20046;-63
2023/04/07 03:42:56;;;;;;;6.82;3.40;;;;;;;;;;4952286;28;20118;-61
2023/04/07 03:45:22;;;;;;;7.95;3.28;;;;;;;;;;4977453;28;20492;-62
2023/04/07 03:47:50;;;;;;;7.07;3.30;;;;;;;;;;4976403;28;20038;-63
2023/04/07 03:50:16;;;;;;;9.07;3.33;;;;;;;;;;4977046;28;21362;-65
2023/04/07 03:52:46;;;;;;;5.65;2.90;;;;;;;;;;4976294;28;20062;-64
2023/04/07 03:55:12;;;;;;;11.13;2.92;;;;;;;;;;4977026;28;20616;-65
2023/04/07 03:57:39;;;;;;;9.80;2.70;;;;;;;;;;4974440;28;20419;-64
2023/04/07 04:00:06;;;;;;;9.30;2.70;;;;;;;;;;4977422;28;20038;-63
2023/04/07 04:02:33;;;;;;;5.38;2.20;;;;;;;;;;4976151;28;20047;-64
2023/04/07 04:04:59;;;;;;;7.28;2.38;;;;;;;;;;4976857;28;20034;-65
2023/04/07 04:07:46;;;;;;;6.10;2.78;;;;;;;;;;5006105;28;20437;-63
2023/04/07 04:10:12;;;;;;;6.82;2.55;;;;;;;;;;5009836;28;20045;-62
2023/04/07 04:12:40;;;;;;;4.45;2.22;;;;;;;;;;5011606;28;20783;-62
2023/04/07 04:15:07;;;;;;;6.30;2.50;;;;;;;;;;5013996;28;20123;-64
2023/04/07 04:17:34;;;;;;;4.95;2.17;;;;;;;;;;5012606;28;20037;-64
2023/04/07 04:20:00;;;;;;;4.97;2.38;;;;;;;;;;5009115;28;20041;-66
2023/04/07 04:22:27;;;;;;;5.88;2.10;;;;;;;;;;5006742;28;20788;-64
2023/04/07 04:24:53;;;;;;;5.20;2.15;;;;;;;;;;5010397;28;20044;-64
2023/04/07 04:27:20;;;;;;;9.85;2.25;;;;;;;;;;5008337;28;20077;-63
2023/04/07 04:29:47;;;;;;;8.07;2.28;;;;;;;;;;5012344;28;20042;-62
2023/04/07 04:32:15;;;;;;;3.53;1.77;;;;;;;;;;5012940;28;20038;-62
2023/04/07 04:34:42;;;;;;;5.43;1.92;;;;;;;;;;5011396;28;20033;-65
2023/04/07 04:37:09;;;;;;;6.13;2.10;;;;;;;;;;5012449;28;20041;-61
2023/04/07 04:39:35;;;;;;;5.53;2.38;;;;;;;;;;5011218;28;20052;-63
2023/04/07 04:42:02;;;;;;;5.57;2.10;;;;;;;;;;5013632;28;20034;-65
2023/04/07 04:44:29;;;;;;;4.80;2.35;;;;;;;;;;5005972;28;20518;-62
2023/04/07 04:46:56;;;;;;;6.57;2.15;;;;;;;;;;4981796;28;20066;-65
2023/04/07 04:49:23;;;;;;;5.28;2.30;;;;;;;;;;4980844;28;20090;-62
2023/04/07 04:51:50;;;;;;;5.25;2.13;;;;;;;;;;4981823;28;20043;-63
2023/04/07 04:54:16;;;;;;;6.72;2.08;;;;;;;;;;4981236;28;20896;-62
2023/04/07 04:56:43;;;;;;;6.68;2.22;;;;;;;;;;4976739;28;20149;-63
2023/04/07 04:59:09;;;;;;;4.75;2.15;;;;;;;;;;4978581;28;20093;-63
2023/04/07 05:01:36;;;;;;;5.18;1.92;;;;;;;;;;4991711;28;20042;-63
2023/04/07 05:04:02;;;;;;;5.07;2.05;;;;;;;;;;4976777;28;20035;-64
2023/04/07 05:06:30;;;;;;;8.23;2.13;;;;;;;;;;4986123;28;20346;-62
2023/04/07 05:08:56;;;;;;;6.25;2.42;;;;;;;;;;4975054;28;20050;-62
2023/04/07 05:11:23;;;;;;;6.38;1.98;;;;;;;;;;4977046;28;20145;-62
2023/04/07 05:13:50;;;;;;;7.03;2.30;;;;;;;;;;4977960;28;20038;-61
2023/04/07 05:16:16;;;;;;;5.75;2.13;;;;;;;;;;4976770;28;20074;-63
2023/04/07 05:18:43;;;;;;;5.72;2.30;;;;;;;;;;4977167;28;20046;-63
2023/04/07 05:21:09;;;;;;;8.10;2.08;;;;;;;;;;4977713;28;20591;-62
2023/04/07 05:23:36;;;;;;;4.07;1.85;;;;;;;;;;4976394;28;20034;-63
2023/04/07 05:26:03;;;;;;;5.45;2.00;;;;;;;;;;4978017;28;20060;-64
2023/04/07 05:28:29;;;;;;;6.60;2.20;;;;;;;;;;4976829;28;20402;-62
2023/04/07 05:30:56;;;;;;;6.95;2.33;;;;;;;;;;4976916;28;20053;-64
2023/04/07 05:33:23;;;;;;;4.95;1.95;;;;;;;;;;4977203;28;20042;-62
2023/04/07 05:35:49;;;;;;;9.70;2.15;;;;;;;;;;4976654;28;20046;-62
2023/04/07 05:38:16;;;;;;;8.32;2.42;;;;;;;;;;4978659;28;20042;-63
2023/04/07 05:40:42;;;;;;;7.80;2.55;;;;;;;;;;4977482;28;20049;-64
2023/04/07 05:43:09;;;;;;;7.70;2.63;;;;;;;;;;4970326;28;20058;-64
2023/04/07 05:45:36;;;;;;;8.18;2.50;;;;;;;;;;4971343;28;20898;-64
2023/04/07 05:48:03;;;;;;;8.48;2.60;;;;;;;;;;4976623;28;20114;-64
2023/04/07 05:50:29;;;;;;;8.85;2.40;;;;;;;;;;4977957;28;20069;-63
2023/04/07 05:52:56;;;;;;;5.32;2.17;;;;;;;;;;4977749;28;20049;-65
2023/04/07 05:55:23;;;;;;;11.38;2.00;;;;;;;;;;4969902;28;20038;-65
2023/04/07 05:57:49;;;;;;;5.80;2.45;;;;;;;;;;4977107;28;20117;-62
2023/04/07 06:00:16;;;;;;;14.35;2.33;;;;;;;;;;4976173;28;20545;-62
2023/04/07 06:02:42;;;;;;;8.25;2.13;;;;;;;;;;4976868;28;20039;-63
2023/04/07 06:05:09;;;;;;;4.68;2.20;;;;;;;;;;4992138;28;20557;-63
2023/04/07 06:07:36;;;;;;;7.05;2.40;;;;;;;;;;4976988;28;20038;-63
2023/04/07 06:10:02;;;;;;;6.43;2.33;;;;;;;;;;4976285;28;20034;-65
2023/04/07 06:12:29;;;;;;;5.82;2.65;;;;;;;;;;4966476;28;20034;-63
2023/04/07 06:14:56;;;;;;;8.27;2.50;;;;;;;;;;4966418;28;20511;-63
2023/04/07 06:17:23;;;;;;;6.32;2.13;;;;;;;;;;4976721;28;20038;-63
2023/04/07 06:19:50;;;;;;;5.47;2.42;;;;;;;;;;4992709;28;20105;-62
2023/04/07 06:22:16;;;;;;;5.40;2.45;;;;;;;;;;4975832;28;20065;-62
2023/04/07 06:24:43;;;;;;;10.02;2.58;;;;;;;;;;4991083;28;20117;-63
2023/04/07 06:27:10;;;;;;;12.02;2.78;;;;;;;;;;4975231;28;20078;-63
2023/04/07 06:29:37;;;;;;;6.13;2.88;;;;;;;;;;4975860;28;20459;-66
2023/04/07 06:32:03;;;;;;;5.88;2.28;;;;;;;;;;4977537;28;20038;-62
2023/04/07 06:34:30;;;;;;;9.57;2.72;;;;;;;;;;4966455;28;20156;-63
2023/04/07 06:36:56;;;;;;;7.05;2.53;;;;;;;;;;4968436;28;20045;-63
2023/04/07 06:39:26;;;;;;;6.95;2.97;;;;;;;;;;4964162;28;20042;-63
2023/04/07 06:41:53;;;;;;;6.20;3.17;;;;;;;;;;4987816;28;20038;-63
2023/04/07 06:44:19;;;;;;;9.60;3.10;;;;;;;;;;4968305;28;21765;-64
2023/04/07 06:46:49;;;;;;;6.28;2.70;;;;;;;;;;4977418;28;20145;-63
2023/04/07 06:49:16;;;;;;;8.60;3.13;;;;;;;;;;4977181;28;20153;-64
2023/04/07 06:51:43;;;;;;;6.90;2.60;;;;;;;;;;4963323;28;20153;-64
2023/04/07 06:54:13;;;;;;;7.20;2.78;;;;;;;;;;4976490;28;20562;-64
2023/04/07 06:56:40;;;;;;;5.70;2.67;;;;;;;;;;4976506;28;20617;-64
2023/04/07 06:59:07;;;;;;;7.43;2.53;;;;;;;;;;4987076;28;20041;-64
2023/04/07 07:01:34;;;;;;;7.97;3.22;;;;;;;;;;4976978;28;20042;-63
2023/04/07 07:04:00;;;;;;;7.28;3.22;;;;;;;;;;4976926;28;20129;-64
2023/04/07 07:06:27;;;;;;;9.23;3.17;;;;;;;;;;4975381;28;20092;-61
2023/04/07 07:08:54;;;;;;;9.30;2.63;;;;;;;;;;4976406;28;20045;-62
2023/04/07 07:11:21;;;;;;;7.20;2.97;;;;;;;;;;4975762;28;20085;-62
2023/04/07 07:13:47;;;;;;;6.18;2.90;;;;;;;;;;4977042;28;20030;-61
2023/04/07 07:16:14;;;;;;;7.38;3.05;;;;;;;;;;4978314;28;20117;-62
2023/04/07 07:18:41;;;;;;;5.22;2.67;;;;;;;;;;4975626;28;20034;-62
2023/04/07 07:21:07;;;;;;;10.10;3.63;;;;;;;;;;4977403;28;20499;-61
2023/04/07 07:23:34;;;;;;;7.90;3.08;;;;;;;;;;4974645;28;20107;-62
2023/04/07 07:26:01;;;;;;;7.63;2.88;;;;;;;;;;4975304;28;20076;-62
2023/04/07 07:28:28;;;;;;;7.78;2.83;;;;;;;;;;4974976;28;20034;-62
2023/04/07 07:30:54;;;;;;;5.40;2.63;;;;;;;;;;4976350;28;20049;-61
2023/04/07 07:33:21;;;;;;;11.73;2.67;;;;;;;;;;4972126;28;20104;-61
2023/04/07 07:35:48;;;;;;;7.80;3.20;;;;;;;;;;4979648;28;20045;-63
2023/04/07 07:38:15;;;;;;;6.00;2.58;;;;;;;;;;4976021;28;20030;-62
2023/04/07 07:40:42;;;;;;;11.10;2.95;;;;;;;;;;4974740;28;20376;-65
2023/04/07 07:43:08;;;;;;;9.70;2.67;;;;;;;;;;4976470;28;20058;-62
2023/04/07 07:45:35;;;;;;;6.68;3.25;;;;;;;;;;4974994;28;21699;-61
2023/04/07 07:48:01;;;;;;;6.63;3.25;;;;;;;;;;4976699;28;20035;-62
2023/04/07 07:50:28;;;;;;;11.70;3.67;;;;;;;;;;4976042;28;20133;-62
2023/04/07 07:52:55;;;;;;;7.80;3.67;;;;;;;;;;4975944;28;20035;-64
2023/04/07 07:55:21;;;;;;;6.03;3.05;;;;;;;;;;4974595;28;20454;-63
2023/04/07 07:57:48;;;;;;;14.73;3.42;;;;;;;;;;4975246;28;20081;-61
2023/04/07 08:00:14;;;;;;;6.28;2.67;;;;;;;;;;4976504;28;20042;-62
2023/04/07 08:02:41;;;;;;;9.43;3.38;;;;;;;;;;4976185;28;20035;-63
2023/04/07 08:05:08;;;;;;;8.95;3.10;;;;;;;;;;4978853;28;20097;-62
2023/04/07 08:07:35;;;;;;;9.20;3.22;;;;;;;;;;4979191;28;20501;-63
2023/04/07 08:10:02;;;;;;;6.47;3.33;;;;;;;;;;4980402;28;20070;-61
2023/04/07 08:12:28;;;;;;;6.18;3.05;;;;;;;;;;4978354;28;20047;-63
2023/04/07 08:14:55;;;;;;;9.45;3.15;;;;;;;;;;4979649;28;20042;-62
2023/04/07 08:17:21;;;;;;;7.70;3.28;;;;;;;;;;4980205;28;20040;-63
2023/04/07 08:19:48;;;;;;;7.13;3.28;;;;;;;;;;4979761;28;20096;-59
2023/04/07 08:22:15;;;;;;;7.28;3.10;;;;;;;;;;4979588;28;20042;-62
2023/04/07 08:24:41;;;;;;;10.60;3.45;;;;;;;;;;4978345;28;20042;-62
2023/04/07 08:27:08;;;;;;;11.48;3.60;;;;;;;;;;4979674;28;20424;-63
2023/04/07 08:29:34;;;;;;;10.18;3.50;;;;;;;;;;4978928;28;20137;-63
2023/04/07 08:32:01;;;;;;;8.45;2.72;;;;;;;;;;4979832;28;20046;-61
2023/04/07 08:34:28;;;;;;;8.40;3.42;;;;;;;;;;4978806;28;20035;-61
2023/04/07 08:36:54;;;;;;;6.97;3.40;;;;;;;;;;4979001;28;20043;-63
2023/04/07 08:39:24;;;;;;;11.77;3.92;;;;;;;;;;4978322;28;20038;-61
2023/04/07 08:41:51;;;;;;;9.75;3.53;;;;;;;;;;4978662;28;20049;-62
2023/04/07 08:44:18;;;;;;;10.27;3.55;;;;;;;;;;4977469;28;20062;-64
2023/04/07 08:46:45;;;;;;;12.48;3.97;;;;;;;;;;4978363;28;20061;-61
2023/04/07 08:49:12;;;;;;;10.75;3.58;;;;;;;;;;4978769;28;20066;-61
2023/04/07 08:51:45;;;;;;;7.28;3.72;;;;;;;;;;4979866;28;20042;-63
2023/04/07 08:54:12;;;;;;;8.55;3.70;;;;;;;;;;4978797;28;20044;-63
2023/04/07 08:56:40;;;;;;;8.93;3.13;;;;;;;;;;4977758;28;20047;-61
2023/04/07 08:59:07;;;;;;;7.25;3.65;;;;;;;;;;4980001;28;20419;-59
2023/04/07 09:01:35;;;;;;;7.03;3.63;;;;;;;;;;4977555;28;20143;-60
2023/04/07 09:04:03;;;;;;;11.00;4.18;;;;;;;;;;4975610;28;20214;-60
2023/04/07 09:06:33;;;;;;;7.80;3.60;;;;;;;;;;4977217;28;20464;-62
2023/04/07 09:09:05;;;;;;;8.93;3.65;;;;;;;;;;4978808;28;20043;-63
2023/04/07 09:11:35;;;;;;;7.93;3.30;;;;;;;;;;4975822;28;20657;-63
2023/04/07 09:14:01;;;;;;;9.32;4.20;;;;;;;;;;4978272;28;20043;-61
2023/04/07 09:16:31;;;;;;;9.32;3.70;;;;;;;;;;4977590;28;20177;-61
2023/04/07 09:18:58;;;;;;;6.95;3.97;;;;;;;;;;4979646;28;20638;-60
2023/04/07 09:21:26;;;;;;;13.02;4.15;;;;;;;;;;4978554;28;20166;-60
2023/04/07 09:23:52;;;;;;;10.98;4.25;;;;;;;;;;4977953;28;20043;-62
2023/04/07 09:26:26;;;;;;;9.40;4.57;;;;;;;;;;4977357;28;20130;-62
2023/04/07 09:28:58;;;;;;;10.02;4.47;;;;;;;;;;4980206;28;20039;-62
2023/04/07 09:31:43;;;;;;;12.13;5.25;;;;;;;;;;4979245;28;20038;-61
2023/04/07 09:34:26;;;;;;;10.77;4.45;;;;;;;;;;4978954;28;20038;-62
2023/04/07 09:36:53;;;;;;;13.40;5.15;;;;;;;;;;4977350;28;20038;-61
2023/04/07 09:39:20;;;;;;;11.23;4.63;;;;;;;;;;4978128;28;20410;-62
2023/04/07 09:41:47;;;;;;;8.68;4.47;;;;;;;;;;4978350;28;20042;-61
2023/04/07 09:44:13;;;;;;;13.20;4.57;;;;;;;;;;4979259;28;20563;-60
2023/04/07 09:46:49;;;;;;;13.68;4.35;;;;;;;;;;4977841;28;20125;-60
2023/04/07 09:49:16;;;;;;;10.93;4.20;;;;;;;;;;4979569;28;20652;-63
2023/04/07 09:52:12;;;;;;;11.05;4.35;;;;;;;;;;4979059;28;20466;-63
2023/04/07 09:54:41;;;;;;;11.68;5.35;;;;;;;;;;4978484;28;20042;-63
2023/04/07 09:57:09;;;;;;;15.40;5.22;;;;;;;;;;4978679;28;20034;-62
2023/04/07 09:59:37;;;;;;;10.18;4.88;;;;;;;;;;4977695;28;20038;-64
2023/04/07 10:02:04;;;;;;;8.90;4.82;;;;;;;;;;4977298;28;20515;-62
2023/04/07 10:04:31;;;;;;;13.88;5.20;;;;;;;;;;4977477;28;20177;-63
2023/04/07 10:06:59;;;;;;;13.68;5.88;;;;;;;;;;4977731;28;20068;-61
2023/04/07 10:09:27;;;;;;;14.18;5.25;;;;;;;;;;4976727;28;20077;-59
2023/04/07 10:11:54;;;;;;;10.88;5.25;;;;;;;;;;4979659;28;20064;-62
2023/04/07 10:14:22;;;;;;;13.70;5.15;;;;;;;;;;4976966;28;20034;-62
2023/04/07 10:16:50;;;;;;;12.93;4.95;;;;;;;;;;4977151;28;20042;-62
2023/04/07 10:19:18;;;;;;;9.80;5.22;;;;;;;;;;4977712;28;20042;-61
2023/04/07 10:21:45;;;;;;;11.98;5.60;;;;;;;;;;4977865;28;20042;-61
2023/04/07 10:24:19;;;;;;;17.00;5.68;;;;;;;;;;4979297;28;20654;-61
2023/04/07 10:26:55;;;;;;;13.32;5.15;;;;;;;;;;4981969;28;20065;-61
2023/04/07 10:29:23;;;;;;;16.75;6.40;;;;;;;;;;4979128;28;20807;-59
2023/04/07 10:31:51;;;;;;;11.93;5.65;;;;;;;;;;4978705;28;20045;-61
2023/04/07 10:34:18;;;;;;;11.68;5.55;;;;;;;;;;4979116;28;20194;-63
2023/04/07 10:37:03;;;;;;;15.20;4.82;;;;;;;;;;4977912;28;20043;-62
2023/04/07 10:39:30;;;;;;;15.20;5.15;;;;;;;;;;4977308;28;20034;-58
2023/04/07 10:41:57;;;;;;;13.02;5.97;;;;;;;;;;4988359;28;20042;-60
2023/04/07 10:44:39;;;;;;;12.98;5.45;;;;;;;;;;4976805;28;20114;-59
2023/04/07 10:47:06;;;;;;;11.90;4.82;;;;;;;;;;4977147;28;20046;-62
2023/04/07 10:49:33;;;;;;;10.93;5.10;;;;;;;;;;4977503;28;20042;-62
2023/04/07 10:52:12;;;;;;;15.30;5.20;;;;;;;;;;4977275;28;20568;-62
2023/04/07 10:54:41;;;;;;;12.70;4.88;;;;;;;;;;4978237;28;20054;-63
2023/04/07 10:57:13;;;;;;;18.13;6.03;;;;;;;;;;4980095;28;20038;-61
2023/04/07 11:00:03;;;;;;;10.52;5.53;;;;;;;;;;4994963;28;20133;-61
2023/04/07 11:02:29;;;;;;;12.88;4.80;;;;;;;;;;4978045;28;20104;-61
2023/04/07 11:04:56;;;;;;;13.85;5.40;;;;;;;;;;4977941;28;20053;-61
2023/04/07 11:07:42;;;;;;;13.88;5.82;;;;;;;;;;4975858;28;20213;-60
2023/04/07 11:10:10;;;;;;;15.43;5.93;;;;;;;;;;4974671;28;20443;-61
2023/04/07 11:12:36;;;;;;;12.48;5.40;;;;;;;;;;4976308;28;20064;-60
2023/04/07 11:15:21;;;;;;;19.30;5.85;;;;;;;;;;4977302;28;20037;-61
2023/04/07 11:18:06;;;;;;;10.48;5.55;;;;;;;;;;4977467;28;20500;-60
2023/04/07 11:20:42;;;;;;;16.10;5.55;;;;;;;;;;4976936;28;20108;-61
2023/04/07 11:23:09;;;;;;;10.60;5.35;;;;;;;;;;4976411;28;20050;-61
2023/04/07 11:25:37;;;;;;;10.35;4.82;;;;;;;;;;4976405;28;20141;-63
2023/04/07 11:28:04;;;;;;;12.15;5.03;;;;;;;;;;4969108;28;20886;-60
2023/04/07 11:30:30;;;;;;;12.18;5.53;;;;;;;;;;4975885;28;20038;-61
2023/04/07 11:32:57;;;;;;;13.82;5.30;;;;;;;;;;4976622;28;20102;-61
2023/04/07 11:35:25;;;;;;;11.82;5.50;;;;;;;;;;4976717;28;20053;-63
2023/04/07 11:37:57;;;;;;;14.52;5.45;;;;;;;;;;4977424;28;20042;-61
2023/04/07 11:40:35;;;;;;;12.35;5.32;;;;;;;;;;4980470;28;20042;-62
2023/04/07 11:43:02;;;;;;;17.33;5.40;;;;;;;;;;4980732;28;20133;-64
2023/04/07 11:45:29;;;;;;;9.18;4.93;;;;;;;;;;4980778;28;20516;-63
2023/04/07 11:47:56;;;;;;;10.38;4.63;;;;;;;;;;4982398;28;20074;-63
2023/04/07 11:50:41;;;;;;;13.27;5.07;;;;;;;;;;4979746;28;20428;-64
2023/04/07 11:53:08;;;;;;;11.00;5.03;;;;;;;;;;4990816;28;20054;-62
2023/04/07 11:55:35;;;;;;;15.07;5.45;;;;;;;;;;4973337;28;20042;-63
2023/04/07 11:58:08;;;;;;;9.68;4.45;;;;;;;;;;4981637;28;20034;-60
2023/04/07 12:00:35;;;;;;;14.07;4.88;;;;;;;;;;4982261;28;20038;-63
2023/04/07 12:03:15;;;;;;;11.23;4.32;;;;;;;;;;4982098;28;20034;-63
2023/04/07 12:05:42;;;;;;;13.95;4.97;;;;;;;;;;4991420;28;20552;-62
2023/04/07 12:08:08;;;;;;;10.35;4.63;;;;;;;;;;4981444;28;20038;-60
2023/04/07 12:10:35;;;;;;;11.88;4.10;;;;;;;;;;4980285;28;20048;-61
2023/04/07 12:13:02;;;;;;;8.50;4.03;;;;;;;;;;4981099;28;20402;-61
2023/04/07 12:15:28;;;;;;;14.15;4.72;;;;;;;;;;4979892;28;21511;-61
2023/04/07 12:17:55;;;;;;;10.70;3.97;;;;;;;;;;4980554;28;20042;-61
2023/04/07 12:20:22;;;;;;;9.55;3.58;;;;;;;;;;4979789;28;20089;-62
2023/04/07 12:22:48;;;;;;;13.70;3.90;;;;;;;;;;4979694;28;20042;-62
2023/04/07 12:25:15;;;;;;;16.38;4.53;;;;;;;;;;4978926;28;20074;-62
2023/04/07 12:27:41;;;;;;;7.40;3.97;;;;;;;;;;4978413;28;20062;-61
2023/04/07 12:30:08;;;;;;;11.05;4.00;;;;;;;;;;4980929;28;21433;-63
2023/04/07 12:32:36;;;;;;;10.73;3.50;;;;;;;;;;4980374;28;20956;-63
2023/04/07 12:35:03;;;;;;;11.80;4.00;;;;;;;;;;4980009;28;20162;-63
2023/04/07 12:37:30;;;;;;;20.00;3.90;;;;;;;;;;4979343;28;20041;-62
2023/04/07 12:39:57;;;;;;;9.25;3.78;;;;;;;;;;4979317;28;21526;-61
2023/04/07 12:42:24;;;;;;;10.60;4.00;;;;;;;;;;4978929;28;21050;-61
2023/04/07 12:44:51;;;;;;;12.30;4.00;;;;;;;;;;4978812;28;20069;-63
2023/04/07 12:47:18;;;;;;;12.45;4.07;;;;;;;;;;4994345;28;20419;-63
2023/04/07 12:49:45;;;;;;;10.52;3.97;;;;;;;;;;4979653;28;20062;-61
2023/04/07 12:52:11;;;;;;;11.77;4.15;;;;;;;;;;4979915;28;20128;-62
2023/04/07 12:54:39;;;;;;;12.38;4.13;;;;;;;;;;4978469;28;20124;-62
2023/04/07 12:57:05;;;;;;;9.35;3.97;;;;;;;;;;4978638;28;20100;-60
2023/04/07 12:59:33;;;;;;;9.60;3.72;;;;;;;;;;4978063;28;20050;-61
2023/04/07 13:02:00;;;;;;;7.20;3.83;;;;;;;;;;4979941;28;20042;-61
2023/04/07 13:04:29;;;;;;;13.13;3.33;;;;;;;;;;4988739;28;20116;-62
2023/04/07 13:06:55;;;;;;;9.82;3.30;;;;;;;;;;4978922;28;20054;-63
2023/04/07 13:09:22;;;;;;;12.73;3.95;;;;;;;;;;4978517;28;20030;-61
2023/04/07 13:11:49;;;;;;;11.15;3.47;;;;;;;;;;4978997;28;20553;-62
2023/04/07 13:14:15;;;;;;;8.10;3.28;;;;;;;;;;4980066;28;20084;-61
2023/04/07 13:16:42;;;;;;;9.35;3.47;;;;;;;;;;4992897;28;20045;-63
2023/04/07 13:19:09;;;;;;;7.30;3.20;;;;;;;;;;4977971;28;20404;-60
2023/04/07 13:21:36;;;;;;;11.07;3.55;;;;;;;;;;4978396;28;20050;-61
2023/04/07 13:24:03;;;;;;;10.50;3.38;;;;;;;;;;4979544;28;20042;-63
2023/04/07 13:26:30;;;;;;;14.55;4.00;;;;;;;;;;4977833;28;20055;-61
2023/04/07 13:28:56;;;;;;;14.77;3.65;;;;;;;;;;4977361;28;20038;-63
2023/04/07 13:31:23;;;;;;;11.98;3.53;;;;;;;;;;4977992;28;20042;-62
2023/04/07 13:33:52;;;;;;;14.23;3.50;;;;;;;;;;4978074;28;20034;-62
2023/04/07 13:36:20;;;;;;;13.98;3.72;;;;;;;;;;4968782;28;20087;-62
2023/04/07 13:38:46;;;;;;;11.10;3.55;;;;;;;;;;4979071;28;20042;-63
2023/04/07 13:41:13;;;;;;;10.15;3.20;;;;;;;;;;4979354;28;20081;-61
2023/04/07 13:43:39;;;;;;;14.15;3.55;;;;;;;;;;4978407;28;20144;-60
2023/04/07 13:46:06;;;;;;;10.73;3.85;;;;;;;;;;4970277;28;20081;-60
2023/04/07 13:48:33;;;;;;;12.63;3.28;;;;;;;;;;4976605;28;20042;-60
2023/04/07 13:50:59;;;;;;;10.48;3.35;;;;;;;;;;4978704;28;20066;-59
2023/04/07 13:53:26;;;;;;;9.13;3.38;;;;;;;;;;4978827;28;20050;-59
2023/04/07 13:55:53;;;;;;;12.18;3.05;;;;;;;;;;4968671;28;20113;-62
2023/04/07 13:58:19;;;;;;;7.28;2.60;;;;;;;;;;4977111;28;20073;-61
2023/04/07 14:00:46;;;;;;;7.70;2.75;;;;;;;;;;4976926;28;20109;-64
2023/04/07 14:03:13;;;;;;;6.95;3.17;;;;;;;;;;4980417;28;20042;-65
2023/04/07 14:05:39;;;;;;;9.80;3.00;;;;;;;;;;4978493;28;20050;-66
2023/04/07 14:08:06;;;;;;;11.55;3.78;;;;;;;;;;4979057;28;20473;-66
2023/04/07 14:10:33;;;;;;;15.27;3.85;;;;;;;;;;4994000;28;20042;-64
2023/04/07 14:13:00;;;;;;;13.80;3.70;;;;;;;;;;4980549;28;20391;-63
2023/04/07 14:15:27;;;;;;;11.57;3.38;;;;;;;;;;4977945;28;20057;-65
2023/04/07 14:17:53;;;;;;;15.30;3.78;;;;;;;;;;4977934;28;20672;-64
2023/04/07 14:20:20;;;;;;;14.10;3.45;;;;;;;;;;4978774;28;20612;-63
2023/04/07 14:22:46;;;;;;;8.43;2.70;;;;;;;;;;4977496;28;20442;-64
2023/04/07 14:25:13;;;;;;;14.00;2.88;;;;;;;;;;4968462;28;20038;-63
2023/04/07 14:27:40;;;;;;;12.60;3.28;;;;;;;;;;4974955;28;20046;-61
2023/04/07 14:30:07;;;;;;;12.85;3.10;;;;;;;;;;4985618;28;20053;-63
2023/04/07 14:32:33;;;;;;;9.77;3.08;;;;;;;;;;4976200;28;20034;-67
2023/04/07 14:35:00;;;;;;;20.88;4.03;;;;;;;;;;4977179;28;20367;-65
2023/04/07 14:37:29;;;;;;;9.05;3.15;;;;;;;;;;4975764;28;20038;-64
2023/04/07 14:39:56;;;;;;;15.15;3.45;;;;;;;;;;4976841;28;20081;-63
2023/04/07 14:42:23;;;;;;;6.97;2.97;;;;;;;;;;4975357;28;20038;-65